Time;durP1;ratioP1;P1;durP2;ratioP2;P2;SDS_P1;SDS_P2;PMS_P1;PMS_P2;Temp;Humidity;BMP_temperature;BMP_pressure;BME280_temperature;BME280_humidity;BME280_pressure;Samples;Min_cycle;Max_cycle;Signal;HPM_P1;HPM_P2
2023/09/15 00:00:26;;;;;;;4.85;0.80;;;;;;;11.50;76.86;101164.25;5105677;28;20023;-64
2023/09/15 00:02:55;;;;;;;1.13;1.00;;;;;;;11.43;76.96;101162.50;5105315;28;20020;-64
2023/09/15 00:05:20;;;;;;;0.75;0.70;;;;;;;11.44;77.41;101170.28;5105237;28;20062;-64
2023/09/15 00:07:46;;;;;;;1.75;0.90;;;;;;;11.43;77.10;101171.19;5105386;28;20023;-65
2023/09/15 00:10:12;;;;;;;1.02;0.95;;;;;;;11.43;77.46;101167.69;5105042;28;20020;-65
2023/09/15 00:12:42;;;;;;;1.15;0.73;;;;;;;11.50;77.81;101177.25;5105011;28;20055;-64
2023/09/15 00:15:08;;;;;;;1.17;1.00;;;;;;;11.45;77.77;101178.97;5104959;28;20111;-65
2023/09/15 00:17:36;;;;;;;0.57;0.57;;;;;;;11.44;77.92;101174.66;5104957;28;20039;-64
2023/09/15 00:20:07;;;;;;;1.45;0.85;;;;;;;11.43;78.30;101180.69;5105150;28;20319;-64
2023/09/15 00:22:33;;;;;;;0.70;0.70;;;;;;;11.42;78.40;101182.44;5086585;28;20088;-64
2023/09/15 00:24:59;;;;;;;1.38;0.77;;;;;;;11.41;79.07;101180.69;5104995;28;20032;-65
2023/09/15 00:27:24;;;;;;;1.35;1.20;;;;;;;11.43;78.80;101173.78;5104662;28;20020;-65
2023/09/15 00:29:49;;;;;;;0.65;0.65;;;;;;;11.46;78.86;101162.50;5105084;28;20031;-65
2023/09/15 00:32:15;;;;;;;0.65;0.65;;;;;;;11.42;79.29;101163.38;5104783;28;20024;-65
2023/09/15 00:34:40;;;;;;;0.70;0.70;;;;;;;11.39;79.69;101165.09;5104915;28;20020;-65
2023/09/15 00:37:06;;;;;;;0.75;0.75;;;;;;;11.32;79.77;101168.56;5104852;28;20054;-65
2023/09/15 00:39:32;;;;;;;0.63;0.63;;;;;;;11.30;79.99;101167.69;5104749;28;20034;-64
2023/09/15 00:41:57;;;;;;;0.90;0.70;;;;;;;11.29;80.14;101160.78;5086564;28;20121;-65
2023/09/15 00:44:23;;;;;;;0.75;0.73;;;;;;;11.31;80.17;101164.22;5086604;28;20040;-64
2023/09/15 00:46:48;;;;;;;1.55;0.88;;;;;;;11.30;80.33;101170.28;5108474;28;20032;-64
2023/09/15 00:49:14;;;;;;;2.17;1.08;;;;;;;11.30;80.28;101167.69;5108755;28;20028;-64
2023/09/15 00:51:40;;;;;;;1.10;1.00;;;;;;;11.36;80.28;101172.91;5108791;28;20028;-64
2023/09/15 00:54:07;;;;;;;4.47;1.10;;;;;;;11.39;79.97;101161.63;5108470;28;20107;-67
2023/09/15 00:56:34;;;;;;;3.15;1.15;;;;;;;11.44;80.11;101167.69;5108635;28;20028;-65
2023/09/15 00:59:00;;;;;;;1.35;0.80;;;;;;;11.48;80.12;101152.97;5108785;28;20516;-66
2023/09/15 01:01:27;;;;;;;3.90;1.20;;;;;;;11.53;80.02;101156.44;5090416;28;20492;-66
2023/09/15 01:03:53;;;;;;;0.93;0.80;;;;;;;11.52;79.93;101145.16;5108649;28;20468;-65
2023/09/15 01:06:19;;;;;;;1.30;1.17;;;;;;;11.58;79.82;101159.03;5108507;28;20020;-65
2023/09/15 01:08:46;;;;;;;1.67;1.08;;;;;;;11.58;79.78;101153.84;5108153;28;20020;-65
2023/09/15 01:11:12;;;;;;;1.30;0.80;;;;;;;11.61;79.79;101153.84;5108332;28;20046;-65
2023/09/15 01:13:37;;;;;;;0.73;0.73;;;;;;;11.68;80.05;101145.16;5108463;28;20024;-65
2023/09/15 01:16:12;;;;;;;1.40;1.08;;;;;;;11.77;79.85;101159.91;5108458;28;20019;-64
2023/09/15 01:19:03;;;;;;;0.77;0.68;;;;;;;11.80;79.91;101144.28;5108396;28;20016;-65
2023/09/15 01:21:47;;;;;;;3.83;1.17;;;;;;;11.78;80.00;101154.69;5091476;28;20020;-65
2023/09/15 01:24:21;;;;;;;0.77;0.77;;;;;;;11.77;80.25;101154.69;5108040;28;20024;-66
2023/09/15 01:26:52;;;;;;;1.85;0.85;;;;;;;11.80;80.32;101152.09;5108154;28;20024;-66
2023/09/15 01:29:33;;;;;;;1.73;0.90;;;;;;;11.84;80.19;101152.94;5089900;28;20032;-66
2023/09/15 01:32:00;;;;;;;1.02;0.93;;;;;;;11.89;80.31;101157.28;5107869;28;20024;-65
2023/09/15 01:34:26;;;;;;;1.05;0.75;;;;;;;11.97;80.03;101157.25;5089608;28;20118;-65
2023/09/15 01:36:53;;;;;;;0.73;0.68;;;;;;;11.97;80.27;101145.97;5107899;28;20024;-64
2023/09/15 01:39:19;;;;;;;1.95;0.88;;;;;;;12.04;80.06;101147.69;5107689;28;20027;-65
2023/09/15 01:41:44;;;;;;;1.38;1.13;;;;;;;12.09;80.77;101147.72;5107829;28;20020;-64
2023/09/15 01:44:10;;;;;;;1.10;0.88;;;;;;;12.09;80.25;101151.16;5107812;28;20020;-65
2023/09/15 01:46:35;;;;;;;1.05;0.90;;;;;;;12.16;80.48;101152.03;5107775;28;20051;-65
2023/09/15 01:49:02;;;;;;;0.90;0.70;;;;;;;12.17;80.62;101145.97;5107592;28;20024;-65
2023/09/15 01:51:27;;;;;;;2.25;1.25;;;;;;;12.25;80.54;101146.78;5107316;28;20020;-64
2023/09/15 01:53:53;;;;;;;1.70;1.27;;;;;;;12.34;80.63;101151.09;5107119;28;20126;-64
2023/09/15 01:56:20;;;;;;;10.00;1.25;;;;;;;12.41;80.34;101149.34;5106547;28;20035;-65
2023/09/15 01:58:46;;;;;;;1.35;1.10;;;;;;;12.43;80.23;101154.56;5107320;28;20016;-65
2023/09/15 02:01:11;;;;;;;5.13;1.10;;;;;;;12.47;80.11;101158.88;5107422;28;20050;-65
2023/09/15 02:03:37;;;;;;;0.63;0.63;;;;;;;12.50;80.22;101164.06;5107409;28;20027;-65
2023/09/15 02:06:04;;;;;;;6.43;1.30;;;;;;;12.43;79.99;101157.16;5107429;28;20024;-65
2023/09/15 02:08:30;;;;;;;2.25;1.35;;;;;;;12.43;80.01;101150.19;5089192;28;20083;-65
2023/09/15 02:10:56;;;;;;;0.73;0.70;;;;;;;12.42;80.25;101158.88;5107254;28;20020;-65
2023/09/15 02:13:21;;;;;;;3.00;0.80;;;;;;;12.42;80.60;101151.06;5107184;28;20020;-65
2023/09/15 02:15:46;;;;;;;0.80;0.73;;;;;;;12.39;80.33;101146.75;5107284;28;20079;-64
2023/09/15 02:18:12;;;;;;;0.85;0.73;;;;;;;12.35;80.54;101152.81;5107159;28;20024;-65
2023/09/15 02:20:37;;;;;;;1.17;0.98;;;;;;;12.29;80.69;101150.25;5107277;28;20023;-64
2023/09/15 02:23:03;;;;;;;4.57;1.67;;;;;;;12.27;80.86;101149.38;5106896;28;20085;-65
2023/09/15 02:25:30;;;;;;;2.30;0.90;;;;;;;12.31;81.16;101150.25;5106872;28;20020;-66
2023/09/15 02:27:57;;;;;;;2.22;1.00;;;;;;;12.35;81.28;101155.44;5106987;28;20020;-65
2023/09/15 02:30:22;;;;;;;0.68;0.68;;;;;;;12.41;80.94;101156.28;5106975;28;20051;-65
2023/09/15 02:32:48;;;;;;;2.25;1.20;;;;;;;12.44;81.15;101161.47;5088505;28;20046;-65
2023/09/15 02:35:13;;;;;;;1.70;1.30;;;;;;;12.41;81.29;101157.16;5088810;28;20020;-65
2023/09/15 02:37:38;;;;;;;1.20;0.85;;;;;;;12.39;81.29;101167.59;5106673;28;20097;-65
2023/09/15 02:40:05;;;;;;;1.83;0.88;;;;;;;12.39;81.66;101167.59;5106613;28;20063;-65
2023/09/15 02:42:30;;;;;;;0.88;0.80;;;;;;;12.44;81.70;101169.28;5107140;28;20020;-65
2023/09/15 02:44:55;;;;;;;1.05;0.90;;;;;;;12.44;81.75;101156.28;5106550;28;20024;-67
2023/09/15 02:47:21;;;;;;;5.47;1.35;;;;;;;12.55;81.57;101164.03;5106717;28;20471;-64
2023/09/15 02:49:46;;;;;;;2.13;0.77;;;;;;;12.62;81.47;101161.38;5106484;28;20026;-64
2023/09/15 02:52:11;;;;;;;5.47;1.50;;;;;;;12.63;81.48;101155.31;5106576;28;20372;-65
2023/09/15 02:54:37;;;;;;;3.60;0.82;;;;;;;12.73;81.07;101163.94;5105853;28;20044;-64
2023/09/15 02:57:03;;;;;;;3.80;1.00;;;;;;;12.80;81.05;101156.09;5106587;28;20024;-65
2023/09/15 02:59:28;;;;;;;0.93;0.82;;;;;;;12.86;80.83;101149.09;5087966;28;20048;-63
2023/09/15 03:01:54;;;;;;;1.75;0.85;;;;;;;12.93;80.64;101146.47;5106500;28;20321;-64
2023/09/15 03:04:19;;;;;;;4.38;1.65;;;;;;;12.98;80.55;101155.13;5106327;28;20510;-64
2023/09/15 03:06:45;;;;;;;2.85;1.05;;;;;;;12.97;81.08;101158.63;5106353;28;20055;-66
2023/09/15 03:09:10;;;;;;;1.10;0.82;;;;;;;12.98;80.85;101156.00;5105638;28;20024;-66
2023/09/15 03:11:36;;;;;;;1.67;0.90;;;;;;;12.92;80.92;101148.22;5105962;28;20031;-65
2023/09/15 03:14:01;;;;;;;6.53;1.55;;;;;;;13.00;80.80;101149.00;5106299;28;20023;-65
2023/09/15 03:16:26;;;;;;;3.25;1.08;;;;;;;13.04;80.53;101147.25;5105884;28;20020;-65
2023/09/15 03:18:52;;;;;;;1.55;0.77;;;;;;;13.04;80.46;101147.25;5106134;28;20032;-65
2023/09/15 03:21:17;;;;;;;1.50;1.10;;;;;;;13.08;80.41;101141.13;5105902;28;20069;-65
2023/09/15 03:23:43;;;;;;;0.98;0.85;;;;;;;13.09;80.72;101132.47;5087619;28;20464;-65
2023/09/15 03:26:08;;;;;;;1.90;1.10;;;;;;;13.13;81.14;101135.91;5105752;28;20027;-65
2023/09/15 03:28:35;;;;;;;1.33;0.85;;;;;;;13.16;81.19;101135.91;5087673;28;20020;-65
2023/09/15 03:31:05;;;;;;;1.33;0.80;;;;;;;13.22;81.24;101127.16;5105758;28;20024;-65
2023/09/15 03:33:30;;;;;;;2.85;1.05;;;;;;;13.27;81.52;101131.44;5087314;28;20031;-64
2023/09/15 03:35:56;;;;;;;0.77;0.77;;;;;;;13.31;81.52;101128.81;5105691;28;20020;-64
2023/09/15 03:38:22;;;;;;;0.93;0.88;;;;;;;13.36;81.30;101130.50;5105715;28;20027;-63
2023/09/15 03:40:47;;;;;;;2.20;1.38;;;;;;;13.44;81.35;101140.88;5105500;28;20030;-64
2023/09/15 03:43:12;;;;;;;2.95;1.20;;;;;;;13.46;81.32;101131.31;5105625;28;20023;-65
2023/09/15 03:45:38;;;;;;;2.33;1.20;;;;;;;13.52;81.43;101135.63;5105479;28;20066;-65
2023/09/15 03:48:04;;;;;;;4.18;1.25;;;;;;;13.51;81.48;101131.28;5087368;28;20016;-64
2023/09/15 03:50:32;;;;;;;1.00;0.88;;;;;;;13.47;81.31;101132.16;5105719;28;20035;-65
2023/09/15 03:52:57;;;;;;;1.45;1.08;;;;;;;13.49;81.31;101127.78;5105119;28;20020;-64
2023/09/15 03:55:22;;;;;;;1.42;1.13;;;;;;;13.50;81.80;101133.03;5104819;28;20100;-65
2023/09/15 03:57:48;;;;;;;2.70;1.70;;;;;;;13.47;81.84;101137.38;5105212;28;20130;-65
2023/09/15 04:00:17;;;;;;;2.67;1.35;;;;;;;13.44;82.16;101124.34;5105222;28;20028;-65
2023/09/15 04:02:43;;;;;;;1.95;0.85;;;;;;;13.44;82.53;101130.44;5105274;28;20024;-66
2023/09/15 04:05:10;;;;;;;1.05;0.85;;;;;;;13.39;82.51;101140.91;5104937;28;20027;-65
2023/09/15 04:07:37;;;;;;;2.25;1.48;;;;;;;13.36;82.80;101130.50;5105024;28;20023;-65
2023/09/15 04:10:04;;;;;;;0.75;0.75;;;;;;;13.38;82.86;101143.53;5105041;28;20024;-64
2023/09/15 04:12:30;;;;;;;1.52;1.00;;;;;;;13.38;83.15;101139.19;5087170;28;20057;-66
2023/09/15 04:14:55;;;;;;;3.80;1.35;;;;;;;13.32;83.29;101144.44;5104987;28;20484;-65
2023/09/15 04:17:21;;;;;;;1.33;1.02;;;;;;;13.27;83.45;101144.47;5105091;28;20028;-65
2023/09/15 04:19:46;;;;;;;1.75;0.98;;;;;;;13.28;83.57;101145.34;5085991;28;20026;-65
2023/09/15 04:22:11;;;;;;;2.97;0.75;;;;;;;13.30;83.94;101151.44;5105141;28;20361;-65
2023/09/15 04:24:37;;;;;;;6.53;1.55;;;;;;;13.29;84.05;101143.63;5104716;28;20027;-65
2023/09/15 04:27:02;;;;;;;2.17;1.08;;;;;;;13.38;83.97;101152.25;5104967;28;20085;-65
2023/09/15 04:29:28;;;;;;;1.67;1.58;;;;;;;13.42;83.58;101147.84;5105008;28;20024;-65
2023/09/15 04:31:53;;;;;;;2.75;1.40;;;;;;;13.48;83.59;101152.16;5104923;28;20016;-66
2023/09/15 04:34:19;;;;;;;1.50;0.93;;;;;;;13.50;83.45;101152.97;5104877;28;20027;-66
2023/09/15 04:36:44;;;;;;;1.42;1.30;;;;;;;13.51;83.54;101153.00;5104826;28;20035;-66
2023/09/15 04:39:10;;;;;;;3.15;1.70;;;;;;;13.56;83.18;101159.94;5104668;28;20083;-66
2023/09/15 04:41:35;;;;;;;2.38;1.45;;;;;;;13.54;83.32;101159.97;5104981;28;20020;-66
2023/09/15 04:44:01;;;;;;;2.90;1.30;;;;;;;13.60;83.18;101153.81;5104833;28;20043;-65
2023/09/15 04:46:26;;;;;;;1.65;1.15;;;;;;;13.67;83.16;101141.56;5104852;28;20125;-65
2023/09/15 04:48:51;;;;;;;2.67;1.10;;;;;;;13.75;83.23;101147.59;5104884;28;20035;-66
2023/09/15 04:51:17;;;;;;;2.63;1.40;;;;;;;13.86;83.11;101150.97;5104709;28;20027;-65
2023/09/15 04:53:42;;;;;;;1.23;1.13;;;;;;;13.92;82.97;101150.03;5104524;28;20496;-66
2023/09/15 04:56:08;;;;;;;1.63;1.10;;;;;;;14.04;83.39;101151.63;5104591;28;20032;-66
2023/09/15 04:58:33;;;;;;;1.05;0.93;;;;;;;14.08;82.92;101144.63;5104730;28;20073;-65
2023/09/15 05:00:59;;;;;;;3.33;1.20;;;;;;;14.17;83.26;101141.06;5104538;28;20027;-66
2023/09/15 05:03:25;;;;;;;0.85;0.70;;;;;;;14.22;82.80;101158.41;5086449;28;20028;-65
2023/09/15 05:05:51;;;;;;;2.05;1.05;;;;;;;14.27;82.54;101155.72;5104659;28;20085;-65
2023/09/15 05:08:18;;;;;;;2.45;0.90;;;;;;;14.32;82.42;101156.56;5104577;28;20102;-64
2023/09/15 05:10:46;;;;;;;0.73;0.73;;;;;;;14.37;82.36;101162.59;5104541;28;20039;-65
2023/09/15 05:13:11;;;;;;;1.88;1.08;;;;;;;14.45;82.24;101153.78;5104831;28;20024;-66
2023/09/15 05:15:37;;;;;;;2.22;1.00;;;;;;;14.49;82.38;101151.09;5104771;28;20168;-65
2023/09/15 05:18:03;;;;;;;0.75;0.75;;;;;;;14.59;82.23;101161.44;5104299;28;20020;-65
2023/09/15 05:20:28;;;;;;;2.78;1.15;;;;;;;14.63;82.08;101155.31;5104416;28;20032;-66
2023/09/15 05:22:54;;;;;;;3.08;1.33;;;;;;;14.72;81.98;101160.41;5104477;28;20023;-65
2023/09/15 05:25:19;;;;;;;1.23;0.95;;;;;;;14.84;81.99;101163.75;5104168;28;20036;-65
2023/09/15 05:27:45;;;;;;;1.55;0.93;;;;;;;14.90;81.88;101154.97;5104483;28;20046;-66
2023/09/15 05:30:11;;;;;;;1.33;1.02;;;;;;;14.93;81.43;101150.56;5104351;28;20072;-66
2023/09/15 05:32:36;;;;;;;1.38;0.90;;;;;;;15.04;81.05;101167.81;5089216;28;20043;-66
2023/09/15 05:35:02;;;;;;;0.47;0.45;;;;;;;15.03;80.98;101153.88;5107948;28;20020;-65
2023/09/15 05:37:27;;;;;;;0.95;0.82;;;;;;;15.13;80.64;101167.69;5107957;28;20036;-65
2023/09/15 05:39:53;;;;;;;1.65;0.98;;;;;;;15.17;80.53;101161.53;5107683;28;20110;-66
2023/09/15 05:42:18;;;;;;;1.15;0.93;;;;;;;15.19;80.69;101157.13;5108077;28;20016;-65
2023/09/15 05:44:43;;;;;;;1.08;0.65;;;;;;;15.27;80.66;101167.47;5107870;28;20024;-65
2023/09/15 05:47:09;;;;;;;1.35;0.95;;;;;;;15.28;80.22;101156.13;5107794;28;20483;-66
2023/09/15 05:49:34;;;;;;;2.70;1.20;;;;;;;15.35;80.27;101162.13;5107735;28;20028;-65
2023/09/15 05:52:00;;;;;;;0.80;0.52;;;;;;;15.39;80.37;101157.69;5107698;28;20108;-66
2023/09/15 05:54:26;;;;;;;1.65;1.00;;;;;;;15.44;79.90;101163.72;5107007;28;20044;-66
2023/09/15 05:56:52;;;;;;;3.55;1.08;;;;;;;15.46;79.90;101165.41;5107543;28;20035;-66
2023/09/15 05:59:17;;;;;;;1.00;0.80;;;;;;;15.51;79.81;101165.31;5107644;28;20061;-66
2023/09/15 06:01:46;;;;;;;1.80;0.93;;;;;;;15.53;79.56;101171.41;5107533;28;20026;-65
2023/09/15 06:04:13;;;;;;;0.82;0.63;;;;;;;15.57;78.98;101174.84;5107760;28;20031;-66
2023/09/15 06:06:39;;;;;;;2.13;1.42;;;;;;;15.48;78.46;101174.09;5089254;28;20036;-65
2023/09/15 06:09:04;;;;;;;1.70;0.90;;;;;;;15.39;78.02;101176.00;5107224;28;20035;-67
2023/09/15 06:11:29;;;;;;;2.63;0.90;;;;;;;15.23;77.85;101187.59;5107679;28;20035;-67
2023/09/15 06:13:55;;;;;;;1.77;0.93;;;;;;;15.05;77.96;101191.34;5107291;28;20369;-66
2023/09/15 06:16:20;;;;;;;2.35;1.23;;;;;;;14.90;77.98;101189.81;5107513;28;20024;-66
2023/09/15 06:18:45;;;;;;;1.90;1.20;;;;;;;14.85;77.85;101199.47;5107176;28;20024;-66
2023/09/15 06:21:11;;;;;;;5.82;1.27;;;;;;;14.77;78.62;101191.69;5088976;28;20024;-66
2023/09/15 06:23:36;;;;;;;3.60;1.30;;;;;;;14.68;78.29;101190.06;5107258;28;20027;-66
2023/09/15 06:26:02;;;;;;;3.67;1.30;;;;;;;14.55;78.61;101186.75;5106907;28;20024;-65
2023/09/15 06:28:27;;;;;;;0.98;0.93;;;;;;;14.43;78.84;101184.28;5106864;28;20016;-66
2023/09/15 06:30:53;;;;;;;2.95;0.98;;;;;;;14.36;78.82;101179.13;5106981;28;20111;-65
2023/09/15 06:33:19;;;;;;;2.35;1.20;;;;;;;14.43;79.09;101192.97;5088447;28;20024;-66
2023/09/15 06:35:44;;;;;;;7.20;1.23;;;;;;;14.45;79.07;101196.44;5106800;28;20045;-66
2023/09/15 06:38:11;;;;;;;3.17;1.17;;;;;;;14.46;79.32;101194.69;5106909;28;20028;-65
2023/09/15 06:40:36;;;;;;;2.53;1.40;;;;;;;14.53;79.55;101196.34;5106805;28;20088;-65
2023/09/15 06:43:04;;;;;;;1.65;0.80;;;;;;;14.59;79.57;101198.00;5106003;28;20059;-66
2023/09/15 06:45:31;;;;;;;1.65;1.10;;;;;;;14.69;79.75;101198.78;5088323;28;20020;-65
2023/09/15 06:47:57;;;;;;;8.52;1.20;;;;;;;14.76;79.46;101203.00;5088427;28;20028;-65
2023/09/15 06:50:23;;;;;;;4.22;1.60;;;;;;;14.87;79.45;101198.53;5088064;28;20027;-66
2023/09/15 06:52:49;;;;;;;1.75;1.02;;;;;;;15.02;79.51;101201.84;5106643;28;20024;-66
2023/09/15 06:55:14;;;;;;;7.22;1.13;;;;;;;15.05;78.91;101193.94;5106121;28;20052;-67
2023/09/15 06:57:40;;;;;;;1.02;0.90;;;;;;;15.15;78.80;101204.28;5106364;28;20023;-66
2023/09/15 07:00:06;;;;;;;1.05;0.93;;;;;;;15.22;78.99;101198.91;5106680;28;20047;-65
2023/09/15 07:02:31;;;;;;;1.23;0.93;;;;;;;15.31;78.96;101195.31;5106880;28;20027;-66
2023/09/15 07:04:57;;;;;;;1.13;0.80;;;;;;;15.38;78.81;101200.44;5107018;28;20024;-67
2023/09/15 07:07:22;;;;;;;2.38;0.82;;;;;;;15.50;78.39;101197.63;5106641;28;20024;-66
2023/09/15 07:09:48;;;;;;;1.48;0.80;;;;;;;15.59;78.56;101200.09;5106346;28;20277;-66
2023/09/15 07:12:13;;;;;;;3.10;1.15;;;;;;;15.65;78.44;101187.78;5106207;28;20024;-66
2023/09/15 07:14:38;;;;;;;1.33;1.10;;;;;;;15.80;77.99;101198.00;5106169;28;20028;-66
2023/09/15 07:17:04;;;;;;;1.15;1.02;;;;;;;15.84;77.80;101202.31;5106291;28;20611;-67
2023/09/15 07:19:30;;;;;;;0.60;0.60;;;;;;;15.93;77.70;101203.88;5106316;28;20016;-66
2023/09/15 07:21:55;;;;;;;1.17;0.73;;;;;;;16.02;77.84;101202.91;5106099;28;20020;-66
2023/09/15 07:24:21;;;;;;;1.60;1.10;;;;;;;16.07;77.54;101200.19;5105770;28;20030;-64
2023/09/15 07:26:47;;;;;;;3.20;0.90;;;;;;;16.17;77.50;101200.84;5105813;28;20032;-64
2023/09/15 07:29:13;;;;;;;4.18;1.27;;;;;;;16.24;76.71;101197.25;5106029;28;20024;-65
2023/09/15 07:31:40;;;;;;;1.30;0.70;;;;;;;16.34;76.03;101193.53;5105765;28;20087;-64
2023/09/15 07:34:06;;;;;;;2.53;1.20;;;;;;;16.42;75.27;101210.88;5105699;28;20019;-64
2023/09/15 07:36:31;;;;;;;4.32;0.85;;;;;;;16.51;75.10;101207.19;5105795;28;20500;-64
2023/09/15 07:38:56;;;;;;;5.00;1.02;;;;;;;16.55;74.39;101207.09;5105813;28;20016;-64
2023/09/15 07:41:22;;;;;;;0.70;0.70;;;;;;;16.59;74.05;101216.63;5105298;28;20020;-63
2023/09/15 07:43:47;;;;;;;0.65;0.60;;;;;;;16.63;74.01;101221.81;5087366;28;20099;-64
2023/09/15 07:46:16;;;;;;;1.48;0.98;;;;;;;16.72;73.84;101219.00;5105553;28;20024;-66
2023/09/15 07:48:42;;;;;;;2.13;1.08;;;;;;;16.78;73.71;101224.09;5105482;28;20032;-65
2023/09/15 07:51:07;;;;;;;4.85;1.55;;;;;;;16.70;72.90;101229.50;5105574;28;20020;-64
2023/09/15 07:53:33;;;;;;;2.25;1.20;;;;;;;16.64;72.84;101221.78;5105189;28;20101;-64
2023/09/15 07:55:58;;;;;;;3.83;0.77;;;;;;;16.61;73.06;101221.84;5105481;28;20024;-65
2023/09/15 07:58:24;;;;;;;0.85;0.60;;;;;;;16.58;73.20;101222.75;5105557;28;20533;-66
2023/09/15 08:00:49;;;;;;;2.30;0.73;;;;;;;16.63;73.05;101234.91;5105510;28;20020;-66
2023/09/15 08:03:14;;;;;;;1.33;0.88;;;;;;;16.59;72.95;101227.13;5087089;28;20040;-67
2023/09/15 08:05:40;;;;;;;1.90;0.88;;;;;;;16.58;73.16;101224.53;5087173;28;20031;-66
2023/09/15 08:08:05;;;;;;;1.38;0.90;;;;;;;16.58;73.21;101220.13;5105397;28;20089;-65
2023/09/15 08:10:31;;;;;;;1.17;0.80;;;;;;;16.62;72.83;101227.94;5105255;28;20031;-66
2023/09/15 08:12:56;;;;;;;2.67;1.30;;;;;;;16.69;73.00;101229.53;5105440;28;20027;-66
2023/09/15 08:15:22;;;;;;;0.93;0.75;;;;;;;16.69;72.80;101222.53;5104770;28;20016;-65
2023/09/15 08:17:49;;;;;;;1.38;0.82;;;;;;;16.72;72.59;101224.25;5105478;28;20024;-66
2023/09/15 08:20:15;;;;;;;0.80;0.60;;;;;;;16.72;72.52;101219.84;5104879;28;20449;-65
2023/09/15 08:22:41;;;;;;;5.60;1.08;;;;;;;16.79;72.47;101236.31;5105185;28;20020;-66
2023/09/15 08:25:07;;;;;;;0.90;0.70;;;;;;;16.79;71.80;101224.97;5086723;28;20024;-66
2023/09/15 08:27:33;;;;;;;1.27;0.95;;;;;;;16.80;71.24;101231.94;5105352;28;20023;-66
2023/09/15 08:29:59;;;;;;;4.10;1.20;;;;;;;16.76;70.49;101233.75;5105268;28;20467;-66
2023/09/15 08:32:25;;;;;;;3.72;1.30;;;;;;;16.79;70.58;101228.44;5105169;28;20487;-66
2023/09/15 08:34:50;;;;;;;1.98;1.23;;;;;;;16.88;70.00;101232.63;5105124;28;20054;-66
2023/09/15 08:37:15;;;;;;;1.77;0.82;;;;;;;16.91;69.77;101235.19;5105085;28;20020;-65
2023/09/15 08:39:41;;;;;;;1.42;0.88;;;;;;;16.94;69.53;101229.00;5104999;28;20102;-66
2023/09/15 08:42:15;;;;;;;1.10;0.75;;;;;;;17.06;69.31;101236.59;5104775;28;20040;-66
2023/09/15 08:44:43;;;;;;;1.98;1.23;;;;;;;17.22;69.09;101234.53;5104961;28;20087;-66
2023/09/15 08:47:09;;;;;;;2.08;0.90;;;;;;;17.31;68.50;101237.84;5087059;28;20513;-66
2023/09/15 08:49:35;;;;;;;1.00;0.90;;;;;;;17.47;68.48;101240.97;5105036;28;20044;-66
2023/09/15 08:52:03;;;;;;;1.92;1.02;;;;;;;17.59;67.60;101250.28;5104706;28;20020;-66
2023/09/15 08:54:30;;;;;;;1.33;0.90;;;;;;;17.75;67.26;101240.28;5104815;28;20553;-66
2023/09/15 08:56:56;;;;;;;2.35;1.33;;;;;;;17.84;67.12;101234.78;5105034;28;20078;-66
2023/09/15 08:59:23;;;;;;;1.00;0.82;;;;;;;17.91;66.45;101227.63;5105089;28;20149;-66
2023/09/15 09:01:48;;;;;;;1.67;1.08;;;;;;;17.96;66.74;101224.88;5104767;28;20027;-64
2023/09/15 09:04:13;;;;;;;0.55;0.55;;;;;;;18.11;65.70;101233.25;5104828;28;20056;-66
2023/09/15 09:06:39;;;;;;;2.10;1.02;;;;;;;18.23;65.37;101246.06;5106825;28;20102;-66
2023/09/15 09:09:05;;;;;;;0.68;0.65;;;;;;;18.26;65.25;101230.22;5108818;28;20031;-65
2023/09/15 09:11:31;;;;;;;4.20;0.70;;;;;;;18.20;65.02;101243.53;5108444;28;20081;-66
2023/09/15 09:13:57;;;;;;;3.22;0.80;;;;;;;18.10;65.35;101242.88;5108603;28;20099;-66
2023/09/15 09:16:22;;;;;;;0.85;0.68;;;;;;;18.04;64.59;101238.66;5108808;28;20438;-65
2023/09/15 09:18:58;;;;;;;0.57;0.57;;;;;;;18.02;64.70;101242.25;5108572;28;20020;-65
2023/09/15 09:21:28;;;;;;;1.65;0.90;;;;;;;18.04;64.89;101243.91;5108687;28;20016;-66
2023/09/15 09:23:55;;;;;;;3.10;1.27;;;;;;;18.18;64.45;101247.97;5108533;28;20024;-66
2023/09/15 09:26:21;;;;;;;1.45;0.90;;;;;;;18.29;63.79;101238.03;5108275;28;20024;-67
2023/09/15 09:28:46;;;;;;;3.00;0.70;;;;;;;18.38;64.76;101242.19;5108377;28;20169;-66
2023/09/15 09:31:12;;;;;;;1.25;0.73;;;;;;;18.53;64.52;101240.88;5090217;28;20039;-66
2023/09/15 09:33:38;;;;;;;2.17;0.80;;;;;;;18.55;63.31;101246.94;5108081;28;20020;-65
2023/09/15 09:36:14;;;;;;;2.13;0.65;;;;;;;18.61;63.90;101255.56;5108358;28;20028;-66
2023/09/15 09:38:48;;;;;;;1.48;1.00;;;;;;;18.54;62.61;101247.00;5108401;28;20028;-66
2023/09/15 09:41:16;;;;;;;3.22;0.80;;;;;;;18.34;62.48;101251.03;5108129;28;20020;-66
2023/09/15 09:43:43;;;;;;;1.55;0.65;;;;;;;18.13;62.04;101255.13;5107918;28;20107;-65
2023/09/15 09:46:10;;;;;;;2.28;0.88;;;;;;;17.98;62.45;101253.72;5108159;28;20035;-65
2023/09/15 09:48:36;;;;;;;0.82;0.70;;;;;;;17.83;62.99;101263.72;5089755;28;20488;-66
2023/09/15 09:51:03;;;;;;;0.60;0.50;;;;;;;17.74;62.68;101267.44;5107956;28;20038;-66
2023/09/15 09:53:32;;;;;;;2.38;0.82;;;;;;;17.64;62.72;101260.69;5107804;28;20052;-67
2023/09/15 09:55:58;;;;;;;1.40;0.80;;;;;;;17.55;63.19;101267.03;5107800;28;20012;-65
2023/09/15 09:58:24;;;;;;;1.50;0.75;;;;;;;17.49;63.47;101261.94;5107804;28;20030;-66
2023/09/15 10:00:50;;;;;;;2.85;1.00;;;;;;;17.48;64.11;101268.94;5107867;28;20024;-66
2023/09/15 10:03:16;;;;;;;1.58;0.80;;;;;;;17.48;64.50;101266.31;5107751;28;20430;-65
2023/09/15 10:05:42;;;;;;;10.05;1.15;;;;;;;17.48;64.12;101263.69;5107643;28;20108;-66
2023/09/15 10:08:08;;;;;;;3.78;0.95;;;;;;;17.43;64.74;101273.41;5107542;28;20028;-66
2023/09/15 10:10:40;;;;;;;2.42;0.77;;;;;;;17.38;64.79;101264.81;5107424;28;20023;-66
2023/09/15 10:13:07;;;;;;;1.15;0.90;;;;;;;17.34;65.18;101264.88;5107741;28;20024;-66
2023/09/15 10:15:34;;;;;;;1.02;0.82;;;;;;;17.29;64.55;101273.75;5107735;28;20028;-66
2023/09/15 10:18:01;;;;;;;1.38;0.90;;;;;;;17.24;64.67;101273.84;5106305;28;20050;-66
2023/09/15 10:20:27;;;;;;;3.33;1.00;;;;;;;17.28;64.60;101274.66;5107377;28;20028;-66
2023/09/15 10:22:54;;;;;;;1.70;0.82;;;;;;;17.33;64.80;101270.16;5107485;28;20070;-65
2023/09/15 10:25:21;;;;;;;1.77;0.90;;;;;;;17.33;64.48;101284.13;5107306;28;20069;-64
2023/09/15 10:27:46;;;;;;;1.67;1.00;;;;;;;17.41;64.46;101275.25;5088980;28;20027;-65
2023/09/15 10:30:12;;;;;;;1.30;0.70;;;;;;;17.42;64.29;101272.56;5107336;28;20020;-66
2023/09/15 10:32:39;;;;;;;2.70;1.00;;;;;;;17.42;64.29;101276.94;5089011;28;20113;-65
2023/09/15 10:35:05;;;;;;;6.10;0.88;;;;;;;17.45;64.20;101274.25;5107022;28;20024;-65
2023/09/15 10:37:31;;;;;;;0.93;0.50;;;;;;;17.46;63.51;101282.09;5107168;28;20024;-66
2023/09/15 10:39:59;;;;;;;1.48;0.73;;;;;;;17.51;63.05;101275.88;5106962;28;20045;-66
2023/09/15 10:42:28;;;;;;;0.73;0.57;;;;;;;17.50;62.90;101275.03;5107007;28;20028;-66
2023/09/15 10:44:54;;;;;;;2.10;0.90;;;;;;;17.45;63.01;101264.63;5106888;28;20020;-66
2023/09/15 10:47:21;;;;;;;2.80;0.80;;;;;;;17.54;62.99;101274.03;5107008;28;20020;-65
2023/09/15 10:49:51;;;;;;;0.82;0.70;;;;;;;17.61;63.13;101271.25;5107012;28;20035;-66
2023/09/15 10:52:17;;;;;;;1.15;0.63;;;;;;;17.68;63.23;101268.44;5106794;28;20024;-67
2023/09/15 10:54:43;;;;;;;2.22;0.90;;;;;;;17.69;62.59;101267.56;5087918;28;20075;-66
2023/09/15 10:57:08;;;;;;;1.50;0.80;;;;;;;17.68;61.67;101272.84;5106826;28;20023;-66
2023/09/15 10:59:35;;;;;;;0.90;0.77;;;;;;;17.63;61.88;101275.59;5106854;28;20358;-67
2023/09/15 11:02:02;;;;;;;2.63;0.98;;;;;;;17.70;62.14;101276.28;5088451;28;20019;-66
2023/09/15 11:04:28;;;;;;;1.08;0.77;;;;;;;17.69;62.11;101270.19;5106402;28;20024;-65
2023/09/15 11:06:54;;;;;;;0.95;0.52;;;;;;;17.78;62.18;101278.75;5106303;28;20030;-66
2023/09/15 11:09:21;;;;;;;0.68;0.47;;;;;;;17.88;62.59;101271.47;5088241;28;20051;-66
2023/09/15 11:11:50;;;;;;;0.80;0.60;;;;;;;18.02;62.60;101258.84;5106556;28;20047;-65
2023/09/15 11:14:20;;;;;;;0.90;0.60;;;;;;;18.17;62.13;101260.25;5088106;28;20027;-66
2023/09/15 11:16:49;;;;;;;0.50;0.50;;;;;;;18.25;61.89;101261.81;5106385;28;20028;-65
2023/09/15 11:19:17;;;;;;;0.90;0.60;;;;;;;18.31;62.08;101249.38;5106354;28;20024;-65